YHD weather

Dryden Regional Airport
Dryden, Ontario, Canada

Public forecast

Using degrees Celsius for public forecast. Weather courtesy of forecast.io.

Current aviation weather report (METAR) for Dryden Regional Airport

Retrieved 2019/12/12 23:00 UTC (44 minutes ago):

CYHD 122300Z AUTO 06004KT 9SM SCT140 M18/M23 A3012 RMK SLP250

Aviation forecast (TAF) for Dryden Regional Airport

Retrieved 2019/12/12 20:39 UTC (3 hours ago):

TAF CYHD 121938Z 1220/1308 VRB03KT P6SM SKC FM130200 10005KT P6SM SCT080 BKN120 BECMG 1306/1308 BKN040 OVC080 RMK FCST BASED ON AUTO OBS NXT FCST BY 130200Z